createdAt,value
2023-01-19T00:00:08.478Z,98287.2
2023-01-19T00:05:45.463Z,98294.9
2023-01-19T00:11:22.167Z,98304.9
2023-01-19T00:16:58.411Z,98314.8
2023-01-19T00:22:34.011Z,98334.6
2023-01-19T00:28:09.452Z,98340.7
2023-01-19T00:33:44.597Z,98340.8
2023-01-19T00:39:20.714Z,98346.4
2023-01-19T00:44:56.781Z,98357.9
2023-01-19T00:50:31.552Z,98359.4
2023-01-19T00:56:08.057Z,98352
2023-01-19T01:01:47.290Z,98349.9
2023-01-19T01:07:23.596Z,98360.8
2023-01-19T01:13:21.399Z,98355.5
2023-01-19T01:19:04.667Z,98350.1
2023-01-19T01:24:39.841Z,98362
2023-01-19T01:30:15.188Z,98365.2
2023-01-19T01:35:50.687Z,98376.3
2023-01-19T01:41:27.713Z,98389.6
2023-01-19T01:47:03.434Z,98394.7
2023-01-19T01:52:38.695Z,98390.5
2023-01-19T01:58:13.805Z,98398
2023-01-19T02:03:49.382Z,98399.8
2023-01-19T02:09:24.416Z,98400.1
2023-01-19T02:15:00.570Z,98394.5
2023-01-19T02:20:36.914Z,98399.5
2023-01-19T02:26:12.426Z,98403.5
2023-01-19T02:31:47.701Z,98406.1
2023-01-19T02:37:22.896Z,98418.2
2023-01-19T02:42:59.653Z,98419.4
2023-01-19T02:48:37.627Z,98429.3
2023-01-19T02:54:13.000Z,98426.9
2023-01-19T02:59:48.627Z,98419.5
2023-01-19T03:05:23.818Z,98418.5
2023-01-19T03:10:58.812Z,98416.7
2023-01-19T03:16:35.605Z,98410.6
2023-01-19T03:22:11.046Z,98416.9
2023-01-19T03:27:47.695Z,98420.3
2023-01-19T03:33:23.074Z,98421.4
2023-01-19T03:38:59.185Z,98425.3
2023-01-19T03:44:39.582Z,98428.6
2023-01-19T03:50:16.251Z,98438.2
2023-01-19T03:55:54.890Z,98432.3
2023-01-19T04:01:31.089Z,98429.9
2023-01-19T04:07:07.682Z,98431.3
2023-01-19T04:12:43.000Z,98426.7
2023-01-19T04:18:19.244Z,98423.9
2023-01-19T04:23:54.245Z,98427
2023-01-19T04:29:29.334Z,98429.3
2023-01-19T04:35:04.419Z,98429.2
2023-01-19T04:40:39.641Z,98429.5
2023-01-19T04:46:14.765Z,98431.4
2023-01-19T04:51:56.193Z,98424.7
2023-01-19T04:57:31.596Z,98421.6
2023-01-19T05:03:07.625Z,98417
2023-01-19T05:08:46.029Z,98415.1
2023-01-19T05:14:23.419Z,98407.4
2023-01-19T05:19:59.111Z,98421.7
2023-01-19T05:25:34.700Z,98422
2023-01-19T05:31:10.557Z,98419.1
2023-01-19T05:36:47.424Z,98419.9
2023-01-19T05:42:22.560Z,98424.6
2023-01-19T05:47:57.763Z,98418.7
2023-01-19T05:53:32.797Z,98413.5
2023-01-19T05:59:18.250Z,98423.1
2023-01-19T06:04:53.458Z,98430.9
2023-01-19T06:10:29.165Z,98448.2
2023-01-19T06:16:06.260Z,98444.6
2023-01-19T06:21:41.857Z,98441.6
2023-01-19T06:27:18.203Z,98453.5
2023-01-19T06:32:53.656Z,98437.4
2023-01-19T06:38:29.284Z,98429.5
2023-01-19T06:44:04.361Z,98424.1
2023-01-19T06:50:02.174Z,98424.7
2023-01-19T06:55:36.760Z,98430.1
2023-01-19T07:01:13.561Z,98428.4
2023-01-19T07:06:51.231Z,98435.6
2023-01-19T07:12:26.676Z,98441.7
2023-01-19T07:18:02.340Z,98436.3
2023-01-19T07:23:39.144Z,98438
2023-01-19T07:29:14.359Z,98451.8
2023-01-19T07:34:49.470Z,98462.7
2023-01-19T07:40:24.809Z,98459.5
2023-01-19T07:46:01.544Z,98463.4
2023-01-19T07:51:37.150Z,98467.6
2023-01-19T07:57:12.480Z,98473.8
2023-01-19T08:02:48.895Z,98482.4
2023-01-19T08:08:24.012Z,98485.7
2023-01-19T08:14:01.640Z,98481.6
2023-01-19T08:19:41.501Z,98491.8
2023-01-19T08:25:19.172Z,98489.6
2023-01-19T08:31:01.437Z,98489.9
2023-01-19T08:37:00.654Z,98490.8
2023-01-19T08:42:39.128Z,98484.9
2023-01-19T08:48:55.553Z,98472.7
2023-01-19T08:54:33.336Z,98464.6
2023-01-19T09:00:11.999Z,98459.9
2023-01-19T09:05:55.388Z,98453.7
2023-01-19T09:11:31.223Z,98449.1
2023-01-19T09:17:32.951Z,98447.9
2023-01-19T09:23:13.216Z,98430.9
2023-01-19T09:28:49.209Z,98421.8
2023-01-19T09:34:30.251Z,98410
2023-01-19T09:40:17.498Z,98426.6
2023-01-19T09:45:54.472Z,98418.9
2023-01-19T09:51:29.758Z,98419.2
2023-01-19T09:57:05.091Z,98427.1
2023-01-19T10:02:41.214Z,98418.2
2023-01-19T10:08:44.074Z,98414.4
2023-01-19T10:14:28.291Z,98405.8
2023-01-19T10:20:16.560Z,98396.4
2023-01-19T10:25:55.877Z,98386.8
2023-01-19T10:31:32.632Z,98382.3
2023-01-19T10:37:10.177Z,98382.7
2023-01-19T10:42:54.381Z,98379.3
2023-01-19T10:48:30.628Z,98358.2
2023-01-19T10:54:06.356Z,98346.4
2023-01-19T10:59:45.513Z,98336.4
2023-01-19T11:05:21.343Z,98314.4
2023-01-19T11:10:57.387Z,98304.9
2023-01-19T11:16:32.735Z,98299.6
2023-01-19T11:22:08.291Z,98294.6
2023-01-19T11:27:44.415Z,98280.6
2023-01-19T11:33:19.553Z,98270.7
2023-01-19T11:39:15.959Z,98254.7
2023-01-19T11:44:52.159Z,98244.5
2023-01-19T11:50:27.672Z,98225.5
2023-01-19T11:56:02.907Z,98206.9
2023-01-19T12:01:38.239Z,98189.7
2023-01-19T12:07:14.170Z,98173.7
2023-01-19T12:12:49.988Z,98152.1
2023-01-19T12:18:26.472Z,98129.1
2023-01-19T12:24:06.701Z,98111.4
2023-01-19T12:29:44.414Z,98096.7
2023-01-19T12:35:20.427Z,98078.5
2023-01-19T12:41:02.322Z,98056.3
2023-01-19T12:46:42.040Z,98031
2023-01-19T12:52:17.513Z,98017.4
2023-01-19T12:57:52.611Z,97988.4
2023-01-19T13:03:28.809Z,97975.8
2023-01-19T13:09:05.531Z,97955.8
2023-01-19T13:14:41.597Z,97924.6
2023-01-19T13:20:16.489Z,97902.2
2023-01-19T13:25:52.081Z,97881.6
2023-01-19T13:31:29.582Z,97860.5
2023-01-19T13:37:06.574Z,97849.2
2023-01-19T13:42:42.640Z,97828.5
2023-01-19T13:48:25.588Z,97807
2023-01-19T13:54:10.787Z,97793.2
2023-01-19T13:59:51.495Z,97777.8
2023-01-19T14:05:30.796Z,97753.5
2023-01-19T14:11:20.511Z,97745.4
2023-01-19T14:17:01.227Z,97731.9
2023-01-19T14:22:36.261Z,97717
2023-01-19T14:28:17.438Z,97700.3
2023-01-19T14:33:52.929Z,97690
2023-01-19T14:39:28.240Z,97673.8
2023-01-19T14:45:03.195Z,97654.7
2023-01-19T14:50:38.454Z,97627.5
2023-01-19T14:56:16.100Z,97604.8
2023-01-19T15:01:54.828Z,97580.1
2023-01-19T15:07:55.101Z,97555.4
2023-01-19T15:13:31.520Z,97537.4
2023-01-19T15:19:14.148Z,97517.8
2023-01-19T15:24:53.842Z,97482.8
2023-01-19T15:30:36.600Z,97465
2023-01-19T15:36:19.248Z,97440
2023-01-19T15:41:59.709Z,97411.4
2023-01-19T15:47:38.287Z,97386.3
2023-01-19T15:53:23.438Z,97356.1
2023-01-19T15:59:06.161Z,97335.4
2023-01-19T16:04:44.512Z,97316.3
2023-01-19T16:10:21.683Z,97308.8
2023-01-19T16:15:56.867Z,97301.1
2023-01-19T16:21:32.748Z,97275.2
2023-01-19T16:27:12.292Z,97259.8
2023-01-19T16:32:48.689Z,97265.2
2023-01-19T16:38:34.366Z,97242.2
2023-01-19T16:44:09.895Z,97221.3
2023-01-19T16:49:45.040Z,97228.2
2023-01-19T16:55:21.291Z,97232
2023-01-19T17:00:58.327Z,97225.6
2023-01-19T17:06:37.909Z,97215.6
2023-01-19T17:12:13.773Z,97212.4
2023-01-19T17:18:01.128Z,97206.4
2023-01-19T17:23:36.599Z,97181.2
2023-01-19T17:29:14.293Z,97202.2
2023-01-19T17:34:51.855Z,97194.3
2023-01-19T17:40:27.164Z,97171.2
2023-01-19T17:46:02.586Z,97185
2023-01-19T17:51:44.730Z,97185.2
2023-01-19T17:57:21.381Z,97188.2
2023-01-19T18:02:58.489Z,97190.5
2023-01-19T18:08:49.021Z,97182.2
2023-01-19T18:14:24.772Z,97178.2
2023-01-19T18:20:00.986Z,97171.2
2023-01-19T18:25:36.553Z,97176.5
2023-01-19T18:31:15.262Z,97193.2
2023-01-19T18:36:51.317Z,97192.1
2023-01-19T18:42:27.293Z,97190.3
2023-01-19T18:48:03.307Z,97192.4
2023-01-19T18:53:42.594Z,97212
2023-01-19T18:59:19.303Z,97196.5
2023-01-19T19:04:55.109Z,97186.5
2023-01-19T19:10:32.032Z,97199.5
2023-01-19T19:16:07.342Z,97199.4
2023-01-19T19:21:52.715Z,97210
2023-01-19T19:27:27.536Z,97209.6
2023-01-19T19:33:04.458Z,97236.1
2023-01-19T19:38:41.629Z,97217.6
2023-01-19T19:44:17.911Z,97242.2
2023-01-19T19:49:54.169Z,97248.9
2023-01-19T19:55:29.617Z,97266.9
2023-01-19T20:01:05.740Z,97256.1
2023-01-19T20:06:42.720Z,97250.5
2023-01-19T20:12:17.998Z,97254.8
2023-01-19T20:17:53.122Z,97248
2023-01-19T20:23:49.120Z,97253.6
2023-01-19T20:29:24.973Z,97278.7
2023-01-19T20:35:02.955Z,97295
2023-01-19T20:40:38.253Z,97315
2023-01-19T20:46:18.610Z,97352.4
2023-01-19T20:52:14.366Z,97346.1
2023-01-19T20:57:56.507Z,97372.9
2023-01-19T21:03:31.454Z,97412.9
2023-01-19T21:09:27.793Z,97436.6
2023-01-19T21:15:05.546Z,97469.2
2023-01-19T21:20:40.579Z,97482.7
2023-01-19T21:26:39.095Z,97515.3
2023-01-19T21:32:35.319Z,97534.8
2023-01-19T21:38:10.064Z,97571.7
2023-01-19T21:43:52.385Z,97615.4
2023-01-19T21:49:27.273Z,97642.1
2023-01-19T21:55:02.699Z,97670
2023-01-19T22:01:06.695Z,97698.7
2023-01-19T22:06:54.829Z,97730.8
2023-01-19T22:12:33.989Z,97760.8
2023-01-19T22:18:23.399Z,97802.1
2023-01-19T22:23:58.498Z,97834.2
2023-01-19T22:29:34.951Z,97853.4
2023-01-19T22:35:12.773Z,97895.4
2023-01-19T22:40:50.765Z,97923.4
2023-01-19T22:46:26.967Z,97956.4
2023-01-19T22:52:03.146Z,97985
2023-01-19T22:57:38.019Z,98016.8
2023-01-19T23:03:13.469Z,98025.8
2023-01-19T23:08:50.602Z,98059.9
2023-01-19T23:14:50.775Z,98088.2
2023-01-19T23:20:26.286Z,98113.7
2023-01-19T23:26:01.161Z,98128.9
2023-01-19T23:31:39.001Z,98145.1
2023-01-19T23:37:19.158Z,98155.6
2023-01-19T23:42:54.386Z,98160.8
2023-01-19T23:48:30.076Z,98185.5
2023-01-19T23:54:05.805Z,98203.4
2023-01-19T23:59:40.932Z,98221
